Time;durP1;ratioP1;P1;durP2;ratioP2;P2;SDS_P1;SDS_P2;PMS_P1;PMS_P2;Temp;Humidity;BMP_temperature;BMP_pressure;BME280_temperature;BME280_humidity;BME280_pressure;Samples;Min_cycle;Max_cycle;Signal;HPM_P1;HPM_P2
2023/09/29 00:00:56;;;;;;;13.88;3.08;;;;;;;;;;6110719;23;20503;-49
2023/09/29 00:03:51;;;;;;;20.70;3.30;;;;;;;;;;6113419;23;20028;-59
2023/09/29 00:06:44;;;;;;;21.55;2.90;;;;;;;;;;6110387;23;20406;-59
2023/09/29 00:09:37;;;;;;;13.82;2.97;;;;;;;;;;6112803;23;20080;-59
2023/09/29 00:12:25;;;;;;;23.08;3.50;;;;;;;;;;6113215;23;20029;-60
2023/09/29 00:15:21;;;;;;;19.65;2.78;;;;;;;;;;6108246;23;20040;-60
2023/09/29 00:18:10;;;;;;;17.05;3.53;;;;;;;;;;6110677;23;20029;-59
2023/09/29 00:21:04;;;;;;;14.25;2.60;;;;;;;;;;6114405;23;20057;-60
2023/09/29 00:23:51;;;;;;;19.10;2.88;;;;;;;;;;6113106;23;20029;-60
2023/09/29 00:26:45;;;;;;;13.80;2.90;;;;;;;;;;6111440;23;20026;-60
2023/09/29 00:29:32;;;;;;;14.82;2.55;;;;;;;;;;6111686;23;20026;-60
2023/09/29 00:32:26;;;;;;;16.23;2.67;;;;;;;;;;6108877;23;20033;-60
2023/09/29 00:35:18;;;;;;;17.13;2.85;;;;;;;;;;6110978;23;20338;-60
2023/09/29 00:38:11;;;;;;;18.23;3.30;;;;;;;;;;6111442;23;20092;-60
2023/09/29 00:41:00;;;;;;;18.25;2.80;;;;;;;;;;6111521;23;20029;-48
2023/09/29 00:43:54;;;;;;;14.35;3.22;;;;;;;;;;6111289;23;20787;-65
2023/09/29 00:46:42;;;;;;;16.38;3.55;;;;;;;;;;6110412;23;20029;-66
2023/09/29 00:49:35;;;;;;;20.77;2.97;;;;;;;;;;6102968;23;20397;-65
2023/09/29 00:52:23;;;;;;;23.27;4.00;;;;;;;;;;6109544;23;20580;-65
2023/09/29 00:55:17;;;;;;;20.17;3.63;;;;;;;;;;6109676;23;20476;-65
2023/09/29 00:58:06;;;;;;;26.27;3.60;;;;;;;;;;6111518;23;20018;-66
2023/09/29 01:01:00;;;;;;;24.52;3.92;;;;;;;;;;6110325;23;20018;-66
2023/09/29 01:03:47;;;;;;;25.88;3.55;;;;;;;;;;6110190;23;20131;-65
2023/09/29 01:06:31;;;;;;;19.88;3.38;;;;;;;;;;6110897;23;20022;-65
2023/09/29 01:09:19;;;;;;;17.13;3.58;;;;;;;;;;6113624;23;20026;-66
2023/09/29 01:12:25;;;;;;;23.15;3.50;;;;;;;;;;6111406;23;20364;-66
2023/09/29 01:15:14;;;;;;;20.73;3.33;;;;;;;;;;6112074;23;20072;-65
2023/09/29 01:18:06;;;;;;;23.25;3.30;;;;;;;;;;6111297;23;20032;-60
2023/09/29 01:20:53;;;;;;;25.15;3.85;;;;;;;;;;6112978;23;20026;-60
2023/09/29 01:23:48;;;;;;;23.65;4.03;;;;;;;;;;6112831;23;20250;-60
2023/09/29 01:26:35;;;;;;;18.63;3.78;;;;;;;;;;6110266;23;20054;-60
2023/09/29 01:29:29;;;;;;;19.50;3.75;;;;;;;;;;6110776;23;20319;-60
2023/09/29 01:32:16;;;;;;;21.95;3.58;;;;;;;;;;6110519;23;20124;-60
2023/09/29 01:35:10;;;;;;;22.55;3.58;;;;;;;;;;6109724;23;20539;-52
2023/09/29 01:37:59;;;;;;;18.48;3.45;;;;;;;;;;6108193;23;20076;-46
2023/09/29 01:40:52;;;;;;;23.83;3.70;;;;;;;;;;6109750;23;20157;-50
2023/09/29 01:43:20;;;;;;;21.05;4.03;;;;;;;;;;6110460;23;20038;-49
2023/09/29 01:46:15;;;;;;;21.85;3.65;;;;;;;;;;6110282;23;20026;-50
2023/09/29 01:49:06;;;;;;;27.92;3.78;;;;;;;;;;6112633;23;20096;-50
2023/09/29 01:51:54;;;;;;;23.02;4.50;;;;;;;;;;6108411;23;20033;-53
2023/09/29 01:54:49;;;;;;;29.30;4.05;;;;;;;;;;6111142;23;20386;-59
2023/09/29 01:57:35;;;;;;;21.13;3.58;;;;;;;;;;6110035;23;20022;-60
2023/09/29 02:00:29;;;;;;;22.77;3.95;;;;;;;;;;6111326;23;20061;-59
2023/09/29 02:03:16;;;;;;;22.50;4.40;;;;;;;;;;6107197;23;20763;-59
2023/09/29 02:06:17;;;;;;;25.52;3.90;;;;;;;;;;6108890;23;20092;-60
2023/09/29 02:09:07;;;;;;;28.85;4.38;;;;;;;;;;6108573;23;20081;-59
2023/09/29 02:11:58;;;;;;;21.85;3.88;;;;;;;;;;6111338;23;20358;-59
2023/09/29 02:14:45;;;;;;;28.58;4.65;;;;;;;;;;6106690;23;20026;-58
2023/09/29 02:17:39;;;;;;;21.15;4.40;;;;;;;;;;6109634;23;20536;-53
2023/09/29 02:20:29;;;;;;;24.67;4.10;;;;;;;;;;6109475;23;20092;-51
2023/09/29 02:23:19;;;;;;;24.05;4.20;;;;;;;;;;6111882;23;20029;-49
2023/09/29 02:26:08;;;;;;;27.60;3.90;;;;;;;;;;6109568;23;20065;-51
2023/09/29 02:28:59;;;;;;;24.30;3.88;;;;;;;;;;6105375;23;20038;-50
2023/09/29 02:31:46;;;;;;;19.45;3.50;;;;;;;;;;6107715;23;20033;-66
2023/09/29 02:34:40;;;;;;;36.22;5.40;;;;;;;;;;6109750;23;20026;-60
2023/09/29 02:37:27;;;;;;;21.85;3.72;;;;;;;;;;6109818;23;20021;-58
2023/09/29 02:40:22;;;;;;;28.50;4.57;;;;;;;;;;6109843;23;20025;-59
2023/09/29 02:43:15;;;;;;;34.80;4.50;;;;;;;;;;6108846;23;20025;-59
2023/09/29 02:46:03;;;;;;;26.63;4.65;;;;;;;;;;6109577;23;20033;-59
2023/09/29 02:48:56;;;;;;;25.58;4.35;;;;;;;;;;6109880;23;20808;-62
2023/09/29 02:51:24;;;;;;;29.60;4.32;;;;;;;;;;6108481;23;20037;-51
2023/09/29 02:54:20;;;;;;;30.00;4.32;;;;;;;;;;6104672;23;20554;-59
2023/09/29 02:57:05;;;;;;;31.02;4.70;;;;;;;;;;6106555;23;20053;-60
2023/09/29 03:00:06;;;;;;;29.50;4.15;;;;;;;;;;6109076;23;20102;-59
2023/09/29 03:03:00;;;;;;;29.13;5.18;;;;;;;;;;6106704;23;20516;-59
2023/09/29 03:06:00;;;;;;;30.80;4.70;;;;;;;;;;6110185;23;20057;-60
2023/09/29 03:08:54;;;;;;;26.58;4.63;;;;;;;;;;6109809;23;20192;-59
2023/09/29 03:11:45;;;;;;;28.30;5.00;;;;;;;;;;6111845;23;20030;-58
2023/09/29 03:14:32;;;;;;;29.40;5.20;;;;;;;;;;6107169;23;20049;-59
2023/09/29 03:17:29;;;;;;;30.00;5.40;;;;;;;;;;6109523;23;20028;-59
2023/09/29 03:20:23;;;;;;;27.65;4.80;;;;;;;;;;6109367;23;20049;-59
2023/09/29 03:23:17;;;;;;;24.10;4.47;;;;;;;;;;6109873;23;20535;-58
2023/09/29 03:26:04;;;;;;;32.22;4.85;;;;;;;;;;6116441;23;20026;-60
2023/09/29 03:28:58;;;;;;;27.23;4.28;;;;;;;;;;6114331;23;20022;-46
2023/09/29 03:31:46;;;;;;;30.35;4.55;;;;;;;;;;6110580;23;20397;-48
2023/09/29 03:34:42;;;;;;;32.03;5.72;;;;;;;;;;6107364;23;20784;-49
2023/09/29 03:37:27;;;;;;;31.20;5.82;;;;;;;;;;6109543;23;20029;-48
2023/09/29 03:40:20;;;;;;;30.58;4.68;;;;;;;;;;6110259;23;20539;-51
2023/09/29 03:43:08;;;;;;;35.78;4.75;;;;;;;;;;6112140;23;20089;-50
2023/09/29 03:46:02;;;;;;;41.78;5.90;;;;;;;;;;6109803;23;20034;-60
2023/09/29 03:48:49;;;;;;;30.85;5.38;;;;;;;;;;6110610;23;20046;-49
2023/09/29 03:51:44;;;;;;;28.02;4.47;;;;;;;;;;6105187;23;20101;-46
2023/09/29 03:54:36;;;;;;;33.25;5.57;;;;;;;;;;6111053;23;20305;-52
2023/09/29 03:57:32;;;;;;;32.08;5.57;;;;;;;;;;6108202;23;20120;-46
2023/09/29 04:00:18;;;;;;;36.03;5.07;;;;;;;;;;6112266;23;20030;-51
2023/09/29 04:03:12;;;;;;;34.92;5.82;;;;;;;;;;6110470;23;20472;-48
2023/09/29 04:05:59;;;;;;;33.30;5.13;;;;;;;;;;6110943;23;20021;-59
2023/09/29 04:08:59;;;;;;;33.17;5.05;;;;;;;;;;6113172;23;20105;-59
2023/09/29 04:11:49;;;;;;;30.30;6.03;;;;;;;;;;6114247;23;20089;-59
2023/09/29 04:14:41;;;;;;;33.67;5.32;;;;;;;;;;6111311;23;20033;-59
2023/09/29 04:17:28;;;;;;;28.08;5.63;;;;;;;;;;6112581;23;20026;-60
2023/09/29 04:20:22;;;;;;;35.90;5.05;;;;;;;;;;6108138;23;20866;-59
2023/09/29 04:23:09;;;;;;;36.20;5.40;;;;;;;;;;6112429;23;20022;-59
2023/09/29 04:26:04;;;;;;;49.13;6.32;;;;;;;;;;6109009;23;20093;-52
2023/09/29 04:28:51;;;;;;;26.08;5.10;;;;;;;;;;6110471;23;20030;-49
2023/09/29 04:31:45;;;;;;;32.60;5.90;;;;;;;;;;6106244;23;20050;-46
2023/09/29 04:34:32;;;;;;;39.25;6.55;;;;;;;;;;6108636;23;20124;-50
2023/09/29 04:37:26;;;;;;;32.70;5.85;;;;;;;;;;6108328;23;20030;-46
2023/09/29 04:40:13;;;;;;;36.83;5.85;;;;;;;;;;6107668;23;20038;-59
2023/09/29 04:43:07;;;;;;;32.28;5.53;;;;;;;;;;6108489;23;20029;-54
2023/09/29 04:45:54;;;;;;;34.83;5.15;;;;;;;;;;6109114;23;20100;-51
2023/09/29 04:48:52;;;;;;;34.10;6.28;;;;;;;;;;6107388;23;20022;-48
2023/09/29 04:51:36;;;;;;;35.85;5.10;;;;;;;;;;6108855;23;20092;-52
2023/09/29 04:54:30;;;;;;;35.92;5.45;;;;;;;;;;6111308;23;20026;-52
2023/09/29 04:57:24;;;;;;;30.23;5.65;;;;;;;;;;6104654;23;20227;-59
2023/09/29 05:00:11;;;;;;;33.95;4.80;;;;;;;;;;6109304;23;20414;-60
2023/09/29 05:03:05;;;;;;;28.25;5.57;;;;;;;;;;6108595;23;20346;-51
2023/09/29 05:05:59;;;;;;;40.30;5.28;;;;;;;;;;6108291;23;20527;-52
2023/09/29 05:09:00;;;;;;;40.72;5.28;;;;;;;;;;6109416;23;20577;-52
2023/09/29 05:11:47;;;;;;;29.10;4.60;;;;;;;;;;6112858;23;20022;-51
2023/09/29 05:14:42;;;;;;;38.67;6.07;;;;;;;;;;6112855;23;20034;-49
2023/09/29 05:17:29;;;;;;;39.08;5.72;;;;;;;;;;6112998;23;20026;-60
2023/09/29 05:20:23;;;;;;;28.13;5.45;;;;;;;;;;6108804;23;20021;-48
2023/09/29 05:23:17;;;;;;;36.55;6.47;;;;;;;;;;6113381;23;20018;-51
2023/09/29 05:26:11;;;;;;;35.70;4.90;;;;;;;;;;6112556;23;20022;-53
2023/09/29 05:28:59;;;;;;;39.58;5.85;;;;;;;;;;6112102;23;20022;-53
2023/09/29 05:31:52;;;;;;;35.40;6.30;;;;;;;;;;6110901;23;20037;-50
2023/09/29 05:34:40;;;;;;;38.20;5.32;;;;;;;;;;6112873;23;20021;-46
2023/09/29 05:37:33;;;;;;;35.10;5.43;;;;;;;;;;6110615;23;20038;-51
2023/09/29 05:40:20;;;;;;;32.80;5.43;;;;;;;;;;6108470;23;20748;-51
2023/09/29 05:43:14;;;;;;;35.90;5.10;;;;;;;;;;6111034;23;20582;-47
2023/09/29 05:46:01;;;;;;;50.38;6.45;;;;;;;;;;6111918;23;20029;-52
2023/09/29 05:48:55;;;;;;;42.90;6.85;;;;;;;;;;6109421;23;20117;-52
2023/09/29 05:51:42;;;;;;;32.90;5.57;;;;;;;;;;6113024;23;20025;-50
2023/09/29 05:54:36;;;;;;;37.47;5.60;;;;;;;;;;6111765;23;20026;-46
2023/09/29 05:57:24;;;;;;;45.20;6.15;;;;;;;;;;6112603;23;20096;-50
2023/09/29 06:00:18;;;;;;;38.05;5.70;;;;;;;;;;6113254;23;20033;-51
2023/09/29 06:03:05;;;;;;;36.55;6.28;;;;;;;;;;6111475;23;20076;-49
2023/09/29 06:06:06;;;;;;;43.67;6.60;;;;;;;;;;6111533;23;20030;-48
2023/09/29 06:09:00;;;;;;;42.03;5.78;;;;;;;;;;6111105;23;20073;-51
2023/09/29 06:11:54;;;;;;;42.50;6.38;;;;;;;;;;6110924;23;20022;-63
2023/09/29 06:14:41;;;;;;;44.10;6.10;;;;;;;;;;6110295;23;20128;-58
2023/09/29 06:17:35;;;;;;;39.60;6.47;;;;;;;;;;6112113;23;20026;-59
2023/09/29 06:20:22;;;;;;;33.47;6.05;;;;;;;;;;6114343;23;20308;-58
2023/09/29 06:23:16;;;;;;;35.55;6.22;;;;;;;;;;6111357;23;20044;-59
2023/09/29 06:26:03;;;;;;;36.05;5.88;;;;;;;;;;6109091;23;20551;-59
2023/09/29 06:28:59;;;;;;;33.10;6.03;;;;;;;;;;6110767;23;20021;-59
2023/09/29 06:31:45;;;;;;;38.72;6.78;;;;;;;;;;6111503;23;20030;-63
2023/09/29 06:34:39;;;;;;;51.40;8.07;;;;;;;;;;6106410;23;20096;-50
2023/09/29 06:37:26;;;;;;;47.63;7.82;;;;;;;;;;6109248;23;20405;-51
2023/09/29 06:40:20;;;;;;;38.50;7.03;;;;;;;;;;6112127;23;20472;-49
2023/09/29 06:43:16;;;;;;;54.03;8.85;;;;;;;;;;6109987;23;20097;-49
2023/09/29 06:46:08;;;;;;;47.00;8.10;;;;;;;;;;6110987;23;20089;-48
2023/09/29 06:48:55;;;;;;;52.78;8.85;;;;;;;;;;6108828;23;20405;-59
2023/09/29 06:51:49;;;;;;;54.55;9.23;;;;;;;;;;6110675;23;20385;-58
2023/09/29 06:54:36;;;;;;;46.30;8.48;;;;;;;;;;6111035;23;20046;-58
2023/09/29 06:57:30;;;;;;;56.45;9.07;;;;;;;;;;6112259;23;20033;-58
2023/09/29 07:00:18;;;;;;;47.97;9.45;;;;;;;;;;6105687;23;20021;-59
2023/09/29 07:03:12;;;;;;;61.47;9.98;;;;;;;;;;6115401;23;20030;-57
2023/09/29 07:05:59;;;;;;;58.40;9.57;;;;;;;;;;6113856;23;20437;-58
2023/09/29 07:09:00;;;;;;;52.15;8.75;;;;;;;;;;6114053;23;20480;-59
2023/09/29 07:11:47;;;;;;;50.10;9.13;;;;;;;;;;6106600;23;20129;-64
2023/09/29 07:14:41;;;;;;;57.65;9.88;;;;;;;;;;6113833;23;20109;-65
2023/09/29 07:17:28;;;;;;;50.33;10.13;;;;;;;;;;6110388;23;20113;-64
2023/09/29 07:20:22;;;;;;;70.90;9.73;;;;;;;;;;6111526;23;20540;-65
2023/09/29 07:23:09;;;;;;;53.60;8.25;;;;;;;;;;6114637;23;20335;-65
2023/09/29 07:26:03;;;;;;;68.28;9.35;;;;;;;;;;6109488;23;20551;-59
2023/09/29 07:28:50;;;;;;;44.45;8.63;;;;;;;;;;6111905;23;20680;-51
2023/09/29 07:31:48;;;;;;;58.15;9.70;;;;;;;;;;6111987;23;20030;-50
2023/09/29 07:34:34;;;;;;;48.10;8.25;;;;;;;;;;6108833;23;20278;-51
2023/09/29 07:37:28;;;;;;;53.30;8.57;;;;;;;;;;6110077;23;20034;-49
2023/09/29 07:40:15;;;;;;;59.78;9.25;;;;;;;;;;6111997;23;20076;-53
2023/09/29 07:43:09;;;;;;;68.97;9.50;;;;;;;;;;6112082;23;20361;-50
2023/09/29 07:45:56;;;;;;;61.88;9.85;;;;;;;;;;6110112;23;20026;-58
2023/09/29 07:48:50;;;;;;;48.67;8.13;;;;;;;;;;6113902;23;20077;-59
2023/09/29 07:51:38;;;;;;;53.80;8.88;;;;;;;;;;6114494;23;20077;-59
2023/09/29 07:54:31;;;;;;;47.75;8.13;;;;;;;;;;6110630;23;20521;-60
2023/09/29 07:57:18;;;;;;;48.25;7.75;;;;;;;;;;6112684;23;20117;-60
2023/09/29 08:00:14;;;;;;;45.70;8.18;;;;;;;;;;6111497;23;20128;-59
2023/09/29 08:03:00;;;;;;;50.00;7.95;;;;;;;;;;6112237;23;20076;-63
2023/09/29 08:05:54;;;;;;;40.85;7.53;;;;;;;;;;6112248;23;20022;-52
2023/09/29 08:08:47;;;;;;;47.75;7.38;;;;;;;;;;6084108;23;20026;-53
2023/09/29 08:11:42;;;;;;;43.63;7.90;;;;;;;;;;6083962;23;20068;-49
2023/09/29 08:14:31;;;;;;;44.00;7.65;;;;;;;;;;6084415;23;20473;-54
2023/09/29 08:17:26;;;;;;;42.97;8.27;;;;;;;;;;6084236;23;20033;-54
2023/09/29 08:20:14;;;;;;;41.10;7.47;;;;;;;;;;6086456;23;20026;-59
2023/09/29 08:23:06;;;;;;;38.25;7.18;;;;;;;;;;6082968;23;20473;-58
2023/09/29 08:25:53;;;;;;;39.35;7.18;;;;;;;;;;6083897;23;20027;-63
2023/09/29 08:28:47;;;;;;;37.80;7.38;;;;;;;;;;6085252;23;20026;-58
2023/09/29 08:31:35;;;;;;;37.35;6.28;;;;;;;;;;6084111;23;20116;-59
2023/09/29 08:34:31;;;;;;;49.05;7.57;;;;;;;;;;6079623;23;20037;-59
2023/09/29 08:37:15;;;;;;;41.80;7.57;;;;;;;;;;6083945;23;20030;-59
2023/09/29 08:40:09;;;;;;;38.50;7.43;;;;;;;;;;6084168;23;20038;-60
2023/09/29 08:42:57;;;;;;;44.38;7.05;;;;;;;;;;6083751;23;20018;-52
2023/09/29 08:45:53;;;;;;;41.85;7.60;;;;;;;;;;6083372;23;20026;-49
2023/09/29 08:48:43;;;;;;;47.97;6.97;;;;;;;;;;6083279;23;20029;-53
2023/09/29 08:51:36;;;;;;;41.60;7.10;;;;;;;;;;6084822;23;20495;-50
2023/09/29 08:54:25;;;;;;;44.45;7.75;;;;;;;;;;6079020;23;20276;-46
2023/09/29 08:57:19;;;;;;;52.42;7.70;;;;;;;;;;6085255;23;20829;-63
2023/09/29 09:00:13;;;;;;;47.92;7.13;;;;;;;;;;6085068;23;20382;-59
2023/09/29 09:03:11;;;;;;;45.20;6.68;;;;;;;;;;6083560;23;20022;-58
2023/09/29 09:05:58;;;;;;;43.10;7.53;;;;;;;;;;6080890;23;20136;-58
2023/09/29 09:08:59;;;;;;;41.40;8.20;;;;;;;;;;6082612;23;20053;-59
2023/09/29 09:11:47;;;;;;;40.15;6.80;;;;;;;;;;6084514;23;20022;-59
2023/09/29 09:14:42;;;;;;;36.90;6.93;;;;;;;;;;6080838;23;20023;-63
2023/09/29 09:17:31;;;;;;;36.40;6.35;;;;;;;;;;6084470;23;20023;-51
2023/09/29 09:20:26;;;;;;;37.78;6.40;;;;;;;;;;6081348;23;20026;-50
2023/09/29 09:23:13;;;;;;;41.33;7.50;;;;;;;;;;6080725;23;20022;-52
2023/09/29 09:26:14;;;;;;;37.58;6.43;;;;;;;;;;6080847;23;20026;-46
2023/09/29 09:29:08;;;;;;;38.45;6.45;;;;;;;;;;6080868;23;20671;-50
2023/09/29 09:32:05;;;;;;;39.70;7.32;;;;;;;;;;6081072;23;20029;-47
2023/09/29 09:34:58;;;;;;;36.35;6.63;;;;;;;;;;6081459;23;20022;-59
2023/09/29 09:37:52;;;;;;;30.95;6.28;;;;;;;;;;6074107;23;20484;-51
2023/09/29 09:40:39;;;;;;;34.58;6.40;;;;;;;;;;6081255;23;20026;-54
2023/09/29 09:43:35;;;;;;;40.70;7.05;;;;;;;;;;6081421;23;20026;-51
2023/09/29 09:46:21;;;;;;;31.70;5.82;;;;;;;;;;6082584;23;20022;-50
2023/09/29 09:49:16;;;;;;;44.83;5.75;;;;;;;;;;6084239;23;20093;-53
2023/09/29 09:52:07;;;;;;;28.55;6.00;;;;;;;;;;6079147;23;20026;-64
2023/09/29 09:55:09;;;;;;;40.35;6.30;;;;;;;;;;6079826;23;20461;-51
2023/09/29 09:57:57;;;;;;;38.05;6.47;;;;;;;;;;6082356;23;20022;-50
2023/09/29 10:00:55;;;;;;;36.35;6.65;;;;;;;;;;6084421;23;20032;-47
2023/09/29 10:03:38;;;;;;;30.98;5.47;;;;;;;;;;6079049;23;20630;-51
2023/09/29 10:06:48;;;;;;;34.55;6.55;;;;;;;;;;6082917;23;20036;-48
2023/09/29 10:09:43;;;;;;;33.95;6.30;;;;;;;;;;6112177;23;20121;-51
2023/09/29 10:12:37;;;;;;;31.50;6.78;;;;;;;;;;6107845;23;20032;-64
2023/09/29 10:15:32;;;;;;;32.08;6.15;;;;;;;;;;6108838;23;20022;-60
2023/09/29 10:18:19;;;;;;;26.25;5.70;;;;;;;;;;6113422;23;20372;-60
2023/09/29 10:21:15;;;;;;;28.45;5.82;;;;;;;;;;6112191;23;20037;-60
2023/09/29 10:24:05;;;;;;;26.20;6.07;;;;;;;;;;6108992;23;20029;-60
2023/09/29 10:26:59;;;;;;;32.28;6.55;;;;;;;;;;6109445;23;20053;-60
2023/09/29 10:29:49;;;;;;;30.90;5.93;;;;;;;;;;6109870;23;20405;-60
2023/09/29 10:32:38;;;;;;;31.70;5.90;;;;;;;;;;6113248;23;20053;-60
2023/09/29 10:35:25;;;;;;;27.20;6.25;;;;;;;;;;6111019;23;20030;-61
2023/09/29 10:38:25;;;;;;;32.60;6.13;;;;;;;;;;6112676;23;20025;-59
2023/09/29 10:41:13;;;;;;;23.63;5.53;;;;;;;;;;6111586;23;20406;-59
2023/09/29 10:44:07;;;;;;;26.95;6.00;;;;;;;;;;6112128;23;20029;-59
2023/09/29 10:46:54;;;;;;;27.73;5.30;;;;;;;;;;6112044;23;20033;-48
2023/09/29 10:49:48;;;;;;;21.50;5.25;;;;;;;;;;6109730;23;20025;-53
2023/09/29 10:52:36;;;;;;;30.73;5.82;;;;;;;;;;6110743;23;20026;-60
2023/09/29 10:55:30;;;;;;;27.65;5.93;;;;;;;;;;6110526;23;20105;-60
2023/09/29 10:58:18;;;;;;;26.10;5.35;;;;;;;;;;6112654;23;20097;-60
2023/09/29 11:01:12;;;;;;;24.75;5.20;;;;;;;;;;6112980;23;20025;-60
2023/09/29 11:04:01;;;;;;;26.25;6.40;;;;;;;;;;6110549;23;20348;-60
2023/09/29 11:07:08;;;;;;;26.33;5.53;;;;;;;;;;6109781;23;20554;-61
2023/09/29 11:10:10;;;;;;;32.55;6.35;;;;;;;;;;6110364;23;20495;-61
2023/09/29 11:13:04;;;;;;;32.65;6.13;;;;;;;;;;6108573;23;20022;-60
2023/09/29 11:15:52;;;;;;;32.95;5.85;;;;;;;;;;6109130;23;20021;-61
2023/09/29 11:18:46;;;;;;;36.55;5.68;;;;;;;;;;6112548;23;20353;-61
2023/09/29 11:21:34;;;;;;;29.38;5.75;;;;;;;;;;6109959;23;20096;-61
2023/09/29 11:24:37;;;;;;;24.25;5.35;;;;;;;;;;6110745;23;20029;-59
2023/09/29 11:27:30;;;;;;;20.30;4.68;;;;;;;;;;6110784;23;20026;-60
2023/09/29 11:30:24;;;;;;;27.80;6.07;;;;;;;;;;6108798;23;20488;-60
2023/09/29 11:33:10;;;;;;;19.45;5.07;;;;;;;;;;6114138;23;20081;-60
2023/09/29 11:36:13;;;;;;;30.92;5.80;;;;;;;;;;6107040;23;20081;-60
2023/09/29 11:39:00;;;;;;;37.47;6.15;;;;;;;;;;6111340;23;20769;-60
2023/09/29 11:41:54;;;;;;;29.90;5.43;;;;;;;;;;6111805;23;20034;-53
2023/09/29 11:44:41;;;;;;;31.67;6.32;;;;;;;;;;6110297;23;20029;-60
2023/09/29 11:47:36;;;;;;;33.90;5.75;;;;;;;;;;6113137;23;20029;-51
2023/09/29 11:50:24;;;;;;;;;;;;;;;;;;6112902;23;20065;-52
2023/09/29 11:53:17;;;;;;;26.15;5.75;;;;;;;;;;6114534;23;20023;-54
2023/09/29 11:56:11;;;;;;;24.13;5.32;;;;;;;;;;6109829;23;20026;-53
2023/09/29 11:59:05;;;;;;;26.60;5.65;;;;;;;;;;6110548;23;20033;-52
2023/09/29 12:01:52;;;;;;;22.35;5.18;;;;;;;;;;6111005;23;20022;-53
2023/09/29 12:04:46;;;;;;;20.95;5.80;;;;;;;;;;6111759;23;20022;-66
2023/09/29 12:07:53;;;;;;;22.27;4.78;;;;;;;;;;6110169;23;20030;-66
2023/09/29 12:10:47;;;;;;;21.73;5.15;;;;;;;;;;6114061;23;20030;-66
2023/09/29 12:13:36;;;;;;;26.08;5.80;;;;;;;;;;6115323;23;20073;-66
2023/09/29 12:16:29;;;;;;;23.52;5.32;;;;;;;;;;6109846;23;20053;-67
2023/09/29 12:19:16;;;;;;;25.92;5.38;;;;;;;;;;6112962;23;20503;-60
2023/09/29 12:22:10;;;;;;;28.73;5.80;;;;;;;;;;6111974;23;20030;-51
2023/09/29 12:25:04;;;;;;;24.60;5.00;;;;;;;;;;6109588;23;20430;-53
2023/09/29 12:27:58;;;;;;;24.02;5.53;;;;;;;;;;6112616;23;20393;-52
2023/09/29 12:30:52;;;;;;;27.65;5.80;;;;;;;;;;6113856;23;20531;-50
2023/09/29 12:33:40;;;;;;;29.85;5.63;;;;;;;;;;6110235;23;20026;-51
2023/09/29 12:36:33;;;;;;;24.02;5.30;;;;;;;;;;6112094;23;20559;-51
2023/09/29 12:39:20;;;;;;;27.80;5.63;;;;;;;;;;6111509;23;20026;-59
2023/09/29 12:42:15;;;;;;;27.85;5.80;;;;;;;;;;6111551;23;20492;-60
2023/09/29 12:45:01;;;;;;;30.52;5.78;;;;;;;;;;6113435;23;20539;-59
2023/09/29 12:47:58;;;;;;;23.63;5.68;;;;;;;;;;6113492;23;20026;-59
2023/09/29 12:50:46;;;;;;;29.00;5.65;;;;;;;;;;6112127;23;20029;-58
2023/09/29 12:53:52;;;;;;;32.33;6.32;;;;;;;;;;6113056;23;20029;-59
2023/09/29 12:56:39;;;;;;;30.08;6.10;;;;;;;;;;6113609;23;20026;-63
2023/09/29 12:59:36;;;;;;;27.65;5.70;;;;;;;;;;6112163;23;20152;-63
2023/09/29 13:02:23;;;;;;;24.52;5.93;;;;;;;;;;6113020;23;20026;-63
2023/09/29 13:05:14;;;;;;;30.25;5.82;;;;;;;;;;6101582;23;20037;-63
2023/09/29 13:08:21;;;;;;;27.98;5.78;;;;;;;;;;6111344;23;20049;-62
2023/09/29 13:11:16;;;;;;;23.48;6.28;;;;;;;;;;6108770;23;20026;-63
2023/09/29 13:14:10;;;;;;;24.35;5.55;;;;;;;;;;6110822;23;20068;-58
2023/09/29 13:16:57;;;;;;;28.40;6.25;;;;;;;;;;6110960;23;20026;-49
2023/09/29 13:19:51;;;;;;;23.02;5.32;;;;;;;;;;6111495;23;20077;-50
2023/09/29 13:22:38;;;;;;;30.60;6.20;;;;;;;;;;6110907;23;20041;-50
2023/09/29 13:25:32;;;;;;;29.40;6.00;;;;;;;;;;6110196;23;20362;-51
2023/09/29 13:28:19;;;;;;;33.65;6.18;;;;;;;;;;6112883;23;20073;-50
2023/09/29 13:31:13;;;;;;;29.17;6.05;;;;;;;;;;6107156;23;20029;-54
2023/09/29 13:34:00;;;;;;;29.88;6.35;;;;;;;;;;6108531;23;20018;-50
2023/09/29 13:36:54;;;;;;;30.40;6.40;;;;;;;;;;6113447;23;20081;-50
2023/09/29 13:39:48;;;;;;;31.90;6.05;;;;;;;;;;6112082;23;20334;-49
2023/09/29 13:42:42;;;;;;;20.90;5.70;;;;;;;;;;6114771;23;20421;-50
2023/09/29 13:45:29;;;;;;;29.20;6.20;;;;;;;;;;6113091;23;20033;-48
2023/09/29 13:48:23;;;;;;;26.13;6.07;;;;;;;;;;6116441;23;20029;-52
2023/09/29 13:51:10;;;;;;;27.08;5.65;;;;;;;;;;6116680;23;20021;-62
2023/09/29 13:54:04;;;;;;;28.05;5.38;;;;;;;;;;6114130;23;20018;-66
2023/09/29 13:56:52;;;;;;;26.92;5.35;;;;;;;;;;6117507;23;20030;-64
2023/09/29 13:59:46;;;;;;;26.95;6.22;;;;;;;;;;6116268;23;20033;-63
2023/09/29 14:02:33;;;;;;;20.83;5.47;;;;;;;;;;6115596;23;20475;-62
2023/09/29 14:05:27;;;;;;;20.40;5.78;;;;;;;;;;6113169;23;20026;-62
2023/09/29 14:08:22;;;;;;;27.08;5.55;;;;;;;;;;6115653;23;20018;-63
2023/09/29 14:11:35;;;;;;;23.08;5.32;;;;;;;;;;6113287;23;20026;-63
2023/09/29 14:14:22;;;;;;;19.67;5.65;;;;;;;;;;6111304;23;20026;-58
2023/09/29 14:17:16;;;;;;;24.20;5.38;;;;;;;;;;6111856;23;20076;-56
2023/09/29 14:20:05;;;;;;;25.98;5.32;;;;;;;;;;6109999;23;20030;-58
2023/09/29 14:22:57;;;;;;;28.48;6.35;;;;;;;;;;6111080;23;20026;-58
2023/09/29 14:25:44;;;;;;;25.40;6.13;;;;;;;;;;6112811;23;20018;-58
2023/09/29 14:28:38;;;;;;;29.75;6.57;;;;;;;;;;6108079;23;20528;-65
2023/09/29 14:31:26;;;;;;;26.13;6.60;;;;;;;;;;6108570;23;20030;-65
2023/09/29 14:34:40;;;;;;;25.90;5.97;;;;;;;;;;6104951;23;20021;-64
2023/09/29 14:37:34;;;;;;;22.52;5.53;;;;;;;;;;6110360;23;20025;-64
2023/09/29 14:40:28;;;;;;;21.25;5.75;;;;;;;;;;6109699;23;20431;-64
2023/09/29 14:43:16;;;;;;;28.35;5.32;;;;;;;;;;6108466;23;20034;-64
2023/09/29 14:46:16;;;;;;;24.38;5.45;;;;;;;;;;6108514;23;20105;-62
2023/09/29 14:49:09;;;;;;;23.20;5.22;;;;;;;;;;6111146;23;20025;-58
2023/09/29 14:52:03;;;;;;;19.85;4.90;;;;;;;;;;6110051;23;20029;-57
2023/09/29 14:54:51;;;;;;;20.88;4.57;;;;;;;;;;6111850;23;20025;-57
2023/09/29 14:57:45;;;;;;;11.00;4.80;;;;;;;;;;6107969;23;20026;-57
2023/09/29 15:00:32;;;;;;;21.50;4.75;;;;;;;;;;6111105;23;20029;-59
2023/09/29 15:03:26;;;;;;;22.52;5.28;;;;;;;;;;6111209;23;20021;-58
2023/09/29 15:06:14;;;;;;;15.20;4.43;;;;;;;;;;6111064;23;20026;-63
2023/09/29 15:09:14;;;;;;;12.10;4.30;;;;;;;;;;6108875;23;20112;-58
2023/09/29 15:12:02;;;;;;;24.50;4.80;;;;;;;;;;6111527;23;20461;-56
2023/09/29 15:14:57;;;;;;;15.63;4.13;;;;;;;;;;6112233;23;20026;-57
2023/09/29 15:17:45;;;;;;;19.45;4.63;;;;;;;;;;6108487;23;20772;-57
2023/09/29 15:20:40;;;;;;;12.93;4.32;;;;;;;;;;6112809;23;20057;-57
2023/09/29 15:23:26;;;;;;;17.45;4.80;;;;;;;;;;6113857;23;20044;-64
2023/09/29 15:26:21;;;;;;;21.95;5.95;;;;;;;;;;6111904;23;20324;-63
2023/09/29 15:29:08;;;;;;;19.40;5.10;;;;;;;;;;6110060;23;20026;-64
2023/09/29 15:32:02;;;;;;;23.27;5.47;;;;;;;;;;6109279;23;20077;-63
2023/09/29 15:34:30;;;;;;;16.80;5.32;;;;;;;;;;6109901;23;20531;-63
2023/09/29 15:37:23;;;;;;;17.40;5.30;;;;;;;;;;6115145;23;20476;-61
2023/09/29 15:40:11;;;;;;;19.38;5.63;;;;;;;;;;6109399;23;20112;-63
2023/09/29 15:43:04;;;;;;;17.58;5.30;;;;;;;;;;6112684;23;20089;-59
2023/09/29 15:45:58;;;;;;;16.58;5.50;;;;;;;;;;6113064;23;20117;-57
2023/09/29 15:48:52;;;;;;;19.23;6.43;;;;;;;;;;6115741;23;20022;-55
2023/09/29 15:51:39;;;;;;;25.33;6.63;;;;;;;;;;6112308;23;20026;-57
2023/09/29 15:54:33;;;;;;;22.27;6.63;;;;;;;;;;6113656;23;20030;-55
2023/09/29 15:57:20;;;;;;;25.67;6.40;;;;;;;;;;6112174;23;20026;-57
2023/09/29 16:00:16;;;;;;;16.70;5.65;;;;;;;;;;6114142;23;20917;-59
2023/09/29 16:03:05;;;;;;;20.92;6.80;;;;;;;;;;6112905;23;20117;-58
2023/09/29 16:06:04;;;;;;;22.38;6.20;;;;;;;;;;6110432;23;20523;-58
2023/09/29 16:08:59;;;;;;;15.25;5.63;;;;;;;;;;6112230;23;20036;-58
2023/09/29 16:11:53;;;;;;;18.55;5.45;;;;;;;;;;6114003;23;20077;-58
2023/09/29 16:14:40;;;;;;;15.68;5.45;;;;;;;;;;6109635;23;20590;-56
2023/09/29 16:17:34;;;;;;;14.77;6.53;;;;;;;;;;6112086;23;20030;-64
2023/09/29 16:20:21;;;;;;;24.88;7.55;;;;;;;;;;6109738;23;20392;-57
2023/09/29 16:23:15;;;;;;;21.80;7.47;;;;;;;;;;6111876;23;20025;-63
2023/09/29 16:26:03;;;;;;;17.77;6.32;;;;;;;;;;6107305;23;20026;-63
2023/09/29 16:28:56;;;;;;;16.45;6.25;;;;;;;;;;6110834;23;20762;-63
2023/09/29 16:31:43;;;;;;;19.02;6.78;;;;;;;;;;6110328;23;20026;-63
2023/09/29 16:34:59;;;;;;;19.25;6.63;;;;;;;;;;6106561;23;20934;-64
2023/09/29 16:38:03;;;;;;;15.90;5.95;;;;;;;;;;6110407;23;20499;-59
2023/09/29 16:40:50;;;;;;;16.08;6.82;;;;;;;;;;6110196;23;20061;-63
2023/09/29 16:43:44;;;;;;;18.88;6.47;;;;;;;;;;6108598;23;20123;-65
2023/09/29 16:46:19;;;;;;;17.45;7.00;;;;;;;;;;6111378;23;20568;-64
2023/09/29 16:49:15;;;;;;;15.82;6.88;;;;;;;;;;6109001;23;20029;-64
2023/09/29 16:51:43;;;;;;;14.43;6.70;;;;;;;;;;6109964;23;20405;-64
2023/09/29 16:54:37;;;;;;;12.88;6.25;;;;;;;;;;6112702;23;20026;-49